sensor_id;sensor_type;location;lat;lon;timestamp;temperature;humidity
30973;DHT22;25423;45.624;13.790;2022-12-07T00:01:51;9.30;99.90
30973;DHT22;25423;45.624;13.790;2022-12-07T00:04:17;9.30;99.90
30973;DHT22;25423;45.624;13.790;2022-12-07T00:06:44;9.30;99.90
30973;DHT22;25423;45.624;13.790;2022-12-07T00:09:11;9.30;99.90
30973;DHT22;25423;45.624;13.790;2022-12-07T00:11:40;9.30;99.90
30973;DHT22;25423;45.624;13.790;2022-12-07T00:14:11;9.30;99.90
30973;DHT22;25423;45.624;13.790;2022-12-07T00:16:37;9.30;99.90
30973;DHT22;25423;45.624;13.790;2022-12-07T00:19:03;9.40;99.90
30973;DHT22;25423;45.624;13.790;2022-12-07T00:21:42;9.30;99.90
30973;DHT22;25423;45.624;13.790;2022-12-07T00:24:19;9.30;99.90
30973;DHT22;25423;45.624;13.790;2022-12-07T00:26:48;9.20;99.90
30973;DHT22;25423;45.624;13.790;2022-12-07T00:29:20;9.20;99.90
30973;DHT22;25423;45.624;13.790;2022-12-07T00:31:47;9.30;99.90
30973;DHT22;25423;45.624;13.790;2022-12-07T00:34:13;9.30;99.90
30973;DHT22;25423;45.624;13.790;2022-12-07T00:36:42;9.20;99.90
30973;DHT22;25423;45.624;13.790;2022-12-07T00:39:08;9.30;99.90
30973;DHT22;25423;45.624;13.790;2022-12-07T00:41:34;9.20;99.90
30973;DHT22;25423;45.624;13.790;2022-12-07T00:44:00;9.30;99.90
30973;DHT22;25423;45.624;13.790;2022-12-07T00:46:26;9.30;99.90
30973;DHT22;25423;45.624;13.790;2022-12-07T00:48:52;9.30;99.90
30973;DHT22;25423;45.624;13.790;2022-12-07T00:51:19;9.30;99.90
30973;DHT22;25423;45.624;13.790;2022-12-07T00:54:00;9.30;99.90
30973;DHT22;25423;45.624;13.790;2022-12-07T00:56:29;9.30;99.90
30973;DHT22;25423;45.624;13.790;2022-12-07T00:58:59;9.30;99.90
30973;DHT22;25423;45.624;13.790;2022-12-07T01:01:25;9.30;99.90
30973;DHT22;25423;45.624;13.790;2022-12-07T01:03:51;9.30;99.90
30973;DHT22;25423;45.624;13.790;2022-12-07T01:06:18;9.30;99.90
30973;DHT22;25423;45.624;13.790;2022-12-07T01:08:44;9.30;99.90
30973;DHT22;25423;45.624;13.790;2022-12-07T01:11:11;9.30;99.90
30973;DHT22;25423;45.624;13.790;2022-12-07T01:13:49;9.30;99.90
30973;DHT22;25423;45.624;13.790;2022-12-07T01:16:17;9.30;99.90
30973;DHT22;25423;45.624;13.790;2022-12-07T01:21:56;9.20;99.90
30973;DHT22;25423;45.624;13.790;2022-12-07T01:26:58;9.30;99.90
30973;DHT22;25423;45.624;13.790;2022-12-07T01:29:23;9.40;99.90
30973;DHT22;25423;45.624;13.790;2022-12-07T01:31:56;9.40;99.90
30973;DHT22;25423;45.624;13.790;2022-12-07T01:34:22;9.40;99.90
30973;DHT22;25423;45.624;13.790;2022-12-07T01:37:08;9.30;99.90
30973;DHT22;25423;45.624;13.790;2022-12-07T01:39:34;9.30;99.90
30973;DHT22;25423;45.624;13.790;2022-12-07T01:42:00;9.30;99.90
30973;DHT22;25423;45.624;13.790;2022-12-07T01:44:26;9.30;99.90
30973;DHT22;25423;45.624;13.790;2022-12-07T01:47:00;9.20;99.90
30973;DHT22;25423;45.624;13.790;2022-12-07T02:03:49;9.20;99.90
30973;DHT22;25423;45.624;13.790;2022-12-07T02:06:16;9.20;99.90
30973;DHT22;25423;45.624;13.790;2022-12-07T02:08:44;9.20;99.90
30973;DHT22;25423;45.624;13.790;2022-12-07T02:14:25;9.20;99.90
30973;DHT22;25423;45.624;13.790;2022-12-07T02:27:46;9.30;99.90
30973;DHT22;25423;45.624;13.790;2022-12-07T02:30:14;9.20;99.90
30973;DHT22;25423;45.624;13.790;2022-12-07T02:33:00;9.20;99.90
30973;DHT22;25423;45.624;13.790;2022-12-07T02:41:02;9.20;99.90
30973;DHT22;25423;45.624;13.790;2022-12-07T02:52:52;9.30;99.90
30973;DHT22;25423;45.624;13.790;2022-12-07T02:55:34;9.30;99.90
30973;DHT22;25423;45.624;13.790;2022-12-07T02:58:27;9.30;99.90
30973;DHT22;25423;45.624;13.790;2022-12-07T03:07:25;9.30;99.90
30973;DHT22;25423;45.624;13.790;2022-12-07T03:19:10;9.20;99.90
30973;DHT22;25423;45.624;13.790;2022-12-07T03:21:40;9.20;99.90
30973;DHT22;25423;45.624;13.790;2022-12-07T03:24:09;9.10;99.90
30973;DHT22;25423;45.624;13.790;2022-12-07T03:26:44;9.10;99.90
30973;DHT22;25423;45.624;13.790;2022-12-07T03:29:13;9.10;99.90
30973;DHT22;25423;45.624;13.790;2022-12-07T03:37:26;9.20;99.90
30973;DHT22;25423;45.624;13.790;2022-12-07T03:58:34;9.10;99.90
30973;DHT22;25423;45.624;13.790;2022-12-07T04:01:00;9.10;99.90
30973;DHT22;25423;45.624;13.790;2022-12-07T04:03:25;9.10;99.90
30973;DHT22;25423;45.624;13.790;2022-12-07T04:05:51;9.10;99.90
30973;DHT22;25423;45.624;13.790;2022-12-07T04:08:35;9.10;99.90
30973;DHT22;25423;45.624;13.790;2022-12-07T04:11:02;9.10;99.90
30973;DHT22;25423;45.624;13.790;2022-12-07T04:13:31;9.10;99.90
30973;DHT22;25423;45.624;13.790;2022-12-07T04:16:17;9.10;99.90
30973;DHT22;25423;45.624;13.790;2022-12-07T04:18:42;9.10;99.90
30973;DHT22;25423;45.624;13.790;2022-12-07T04:21:08;9.20;99.90
30973;DHT22;25423;45.624;13.790;2022-12-07T04:23:34;9.10;99.90
30973;DHT22;25423;45.624;13.790;2022-12-07T04:26:00;9.10;99.90
30973;DHT22;25423;45.624;13.790;2022-12-07T04:28:28;9.10;99.90
30973;DHT22;25423;45.624;13.790;2022-12-07T04:30:54;9.10;99.90
30973;DHT22;25423;45.624;13.790;2022-12-07T04:33:20;9.10;99.90
30973;DHT22;25423;45.624;13.790;2022-12-07T04:35:46;9.20;99.90
30973;DHT22;25423;45.624;13.790;2022-12-07T04:38:12;9.10;99.90
30973;DHT22;25423;45.624;13.790;2022-12-07T04:40:41;9.10;99.90
30973;DHT22;25423;45.624;13.790;2022-12-07T04:43:16;9.20;99.90
30973;DHT22;25423;45.624;13.790;2022-12-07T04:45:45;9.10;99.90
30973;DHT22;25423;45.624;13.790;2022-12-07T04:48:26;9.20;99.90
30973;DHT22;25423;45.624;13.790;2022-12-07T04:51:02;9.20;99.90
30973;DHT22;25423;45.624;13.790;2022-12-07T04:53:27;9.20;99.90
30973;DHT22;25423;45.624;13.790;2022-12-07T04:59:24;9.30;99.90
30973;DHT22;25423;45.624;13.790;2022-12-07T05:01:49;9.30;99.90
30973;DHT22;25423;45.624;13.790;2022-12-07T05:04:24;9.40;99.90
30973;DHT22;25423;45.624;13.790;2022-12-07T05:06:53;9.40;99.90
30973;DHT22;25423;45.624;13.790;2022-12-07T05:09:19;9.50;99.90
30973;DHT22;25423;45.624;13.790;2022-12-07T05:11:45;9.40;99.90
30973;DHT22;25423;45.624;13.790;2022-12-07T05:14:12;9.40;99.90
30973;DHT22;25423;45.624;13.790;2022-12-07T05:16:41;9.40;99.90
30973;DHT22;25423;45.624;13.790;2022-12-07T05:19:08;9.40;99.90
30973;DHT22;25423;45.624;13.790;2022-12-07T05:21:36;9.40;99.90
30973;DHT22;25423;45.624;13.790;2022-12-07T05:24:12;9.40;99.90
30973;DHT22;25423;45.624;13.790;2022-12-07T05:26:38;9.50;99.90
30973;DHT22;25423;45.624;13.790;2022-12-07T05:29:13;9.50;99.90
30973;DHT22;25423;45.624;13.790;2022-12-07T05:31:39;9.50;99.90
30973;DHT22;25423;45.624;13.790;2022-12-07T05:34:05;9.50;99.90
30973;DHT22;25423;45.624;13.790;2022-12-07T05:36:30;9.40;99.90
30973;DHT22;25423;45.624;13.790;2022-12-07T05:39:00;9.40;99.90
30973;DHT22;25423;45.624;13.790;2022-12-07T05:41:34;9.50;99.90
30973;DHT22;25423;45.624;13.790;2022-12-07T05:44:18;9.50;99.90
30973;DHT22;25423;45.624;13.790;2022-12-07T05:46:57;9.60;99.90
30973;DHT22;25423;45.624;13.790;2022-12-07T05:49:22;9.50;99.90
30973;DHT22;25423;45.624;13.790;2022-12-07T05:51:48;9.50;99.90
30973;DHT22;25423;45.624;13.790;2022-12-07T05:54:14;9.50;99.90
30973;DHT22;25423;45.624;13.790;2022-12-07T05:56:40;9.50;99.90
30973;DHT22;25423;45.624;13.790;2022-12-07T05:59:19;9.40;99.90
30973;DHT22;25423;45.624;13.790;2022-12-07T06:02:01;9.30;99.90
30973;DHT22;25423;45.624;13.790;2022-12-07T06:04:29;9.30;99.90
30973;DHT22;25423;45.624;13.790;2022-12-07T06:10:26;9.30;99.90
30973;DHT22;25423;45.624;13.790;2022-12-07T06:25:40;9.00;99.90
30973;DHT22;25423;45.624;13.790;2022-12-07T06:31:24;9.00;99.90
30973;DHT22;25423;45.624;13.790;2022-12-07T06:34:00;8.90;99.90
30973;DHT22;25423;45.624;13.790;2022-12-07T06:45:28;8.80;99.90
30973;DHT22;25423;45.624;13.790;2022-12-07T06:47:54;8.80;99.90
30973;DHT22;25423;45.624;13.790;2022-12-07T06:50:29;8.80;99.90
30973;DHT22;25423;45.624;13.790;2022-12-07T06:52:55;8.80;99.90
30973;DHT22;25423;45.624;13.790;2022-12-07T06:55:21;8.80;99.90
30973;DHT22;25423;45.624;13.790;2022-12-07T06:57:49;8.80;99.90
30973;DHT22;25423;45.624;13.790;2022-12-07T07:00:24;8.80;99.90
30973;DHT22;25423;45.624;13.790;2022-12-07T07:03:02;8.80;99.90
30973;DHT22;25423;45.624;13.790;2022-12-07T07:05:28;8.90;99.90
30973;DHT22;25423;45.624;13.790;2022-12-07T07:08:03;8.90;99.90
30973;DHT22;25423;45.624;13.790;2022-12-07T07:10:29;8.90;99.90
30973;DHT22;25423;45.624;13.790;2022-12-07T07:13:04;9.00;99.90
30973;DHT22;25423;45.624;13.790;2022-12-07T07:15:30;9.00;99.90
30973;DHT22;25423;45.624;13.790;2022-12-07T07:20:31;9.00;99.90
30973;DHT22;25423;45.624;13.790;2022-12-07T07:23:08;9.00;99.90
30973;DHT22;25423;45.624;13.790;2022-12-07T07:25:36;9.00;99.90
30973;DHT22;25423;45.624;13.790;2022-12-07T07:28:02;9.00;99.90
30973;DHT22;25423;45.624;13.790;2022-12-07T07:30:48;9.00;99.90
30973;DHT22;25423;45.624;13.790;2022-12-07T07:33:17;9.10;99.90
30973;DHT22;25423;45.624;13.790;2022-12-07T07:35:56;9.20;99.90
30973;DHT22;25423;45.624;13.790;2022-12-07T07:38:40;9.20;99.90
30973;DHT22;25423;45.624;13.790;2022-12-07T07:41:18;9.30;99.90
30973;DHT22;25423;45.624;13.790;2022-12-07T07:43:46;9.30;99.90
30973;DHT22;25423;45.624;13.790;2022-12-07T07:48:51;9.40;99.90
30973;DHT22;25423;45.624;13.790;2022-12-07T07:51:16;9.50;99.90
30973;DHT22;25423;45.624;13.790;2022-12-07T07:53:42;9.50;99.90
30973;DHT22;25423;45.624;13.790;2022-12-07T07:56:08;9.60;99.90
30973;DHT22;25423;45.624;13.790;2022-12-07T07:58:33;9.60;99.90
30973;DHT22;25423;45.624;13.790;2022-12-07T08:01:06;9.60;99.90
30973;DHT22;25423;45.624;13.790;2022-12-07T08:03:32;9.60;99.90
30973;DHT22;25423;45.624;13.790;2022-12-07T08:05:57;9.70;99.90
30973;DHT22;25423;45.624;13.790;2022-12-07T08:08:23;9.70;99.90
30973;DHT22;25423;45.624;13.790;2022-12-07T08:10:48;9.60;99.90
30973;DHT22;25423;45.624;13.790;2022-12-07T08:13:16;9.70;99.90
30973;DHT22;25423;45.624;13.790;2022-12-07T08:15:42;9.60;99.90
30973;DHT22;25423;45.624;13.790;2022-12-07T08:18:14;9.60;99.90
30973;DHT22;25423;45.624;13.790;2022-12-07T08:20:40;9.70;99.90
30973;DHT22;25423;45.624;13.790;2022-12-07T08:23:07;9.70;99.90
30973;DHT22;25423;45.624;13.790;2022-12-07T08:25:33;9.80;99.90
30973;DHT22;25423;45.624;13.790;2022-12-07T08:27:59;9.80;99.90
30973;DHT22;25423;45.624;13.790;2022-12-07T08:30:26;9.90;99.90
30973;DHT22;25423;45.624;13.790;2022-12-07T08:32:55;10.00;99.90
30973;DHT22;25423;45.624;13.790;2022-12-07T08:35:21;10.10;99.90
30973;DHT22;25423;45.624;13.790;2022-12-07T08:37:46;10.20;99.90
30973;DHT22;25423;45.624;13.790;2022-12-07T08:40:12;10.20;99.90
30973;DHT22;25423;45.624;13.790;2022-12-07T08:42:53;10.20;99.90
30973;DHT22;25423;45.624;13.790;2022-12-07T08:45:20;10.20;99.90
30973;DHT22;25423;45.624;13.790;2022-12-07T08:50:15;10.40;99.90
30973;DHT22;25423;45.624;13.790;2022-12-07T08:52:41;10.40;99.90
30973;DHT22;25423;45.624;13.790;2022-12-07T08:55:07;10.50;99.90
30973;DHT22;25423;45.624;13.790;2022-12-07T08:57:34;10.50;99.90
30973;DHT22;25423;45.624;13.790;2022-12-07T09:00:04;10.50;99.90
30973;DHT22;25423;45.624;13.790;2022-12-07T09:02:30;10.60;99.90
30973;DHT22;25423;45.624;13.790;2022-12-07T09:08:02;10.60;99.90
30973;DHT22;25423;45.624;13.790;2022-12-07T09:10:28;10.70;99.90
30973;DHT22;25423;45.624;13.790;2022-12-07T09:12:54;10.70;99.90
30973;DHT22;25423;45.624;13.790;2022-12-07T09:15:20;10.70;99.90
30973;DHT22;25423;45.624;13.790;2022-12-07T09:17:49;10.70;99.90
30973;DHT22;25423;45.624;13.790;2022-12-07T09:20:14;10.80;99.90
30973;DHT22;25423;45.624;13.790;2022-12-07T09:22:40;10.70;99.90
30973;DHT22;25423;45.624;13.790;2022-12-07T09:25:06;10.80;99.90
30973;DHT22;25423;45.624;13.790;2022-12-07T09:27:58;10.80;99.90
30973;DHT22;25423;45.624;13.790;2022-12-07T09:30:24;10.90;99.90
30973;DHT22;25423;45.624;13.790;2022-12-07T09:32:51;10.90;99.90
30973;DHT22;25423;45.624;13.790;2022-12-07T09:35:18;10.80;99.90
30973;DHT22;25423;45.624;13.790;2022-12-07T09:37:43;10.80;99.90
30973;DHT22;25423;45.624;13.790;2022-12-07T09:40:09;10.90;99.90
30973;DHT22;25423;45.624;13.790;2022-12-07T09:42:36;10.90;99.90
30973;DHT22;25423;45.624;13.790;2022-12-07T09:45:06;10.90;99.90
30973;DHT22;25423;45.624;13.790;2022-12-07T09:47:38;11.00;99.90
30973;DHT22;25423;45.624;13.790;2022-12-07T09:50:04;11.10;99.90
30973;DHT22;25423;45.624;13.790;2022-12-07T09:52:30;11.30;99.90
30973;DHT22;25423;45.624;13.790;2022-12-07T09:54:57;11.20;99.90
30973;DHT22;25423;45.624;13.790;2022-12-07T09:57:30;11.30;99.90
30973;DHT22;25423;45.624;13.790;2022-12-07T09:59:59;11.50;99.90
30973;DHT22;25423;45.624;13.790;2022-12-07T10:05:06;11.70;99.90
30973;DHT22;25423;45.624;13.790;2022-12-07T10:07:32;11.70;99.90
30973;DHT22;25423;45.624;13.790;2022-12-07T10:09:58;11.70;99.90
30973;DHT22;25423;45.624;13.790;2022-12-07T10:12:24;11.70;99.90
30973;DHT22;25423;45.624;13.790;2022-12-07T10:14:57;11.80;99.90
30973;DHT22;25423;45.624;13.790;2022-12-07T10:17:41;11.90;99.90
30973;DHT22;25423;45.624;13.790;2022-12-07T10:20:22;11.90;99.90
30973;DHT22;25423;45.624;13.790;2022-12-07T10:25:43;12.10;99.90
30973;DHT22;25423;45.624;13.790;2022-12-07T10:30:53;12.10;99.90
30973;DHT22;25423;45.624;13.790;2022-12-07T10:33:40;12.20;99.90
30973;DHT22;25423;45.624;13.790;2022-12-07T10:39:01;12.20;99.90
30973;DHT22;25423;45.624;13.790;2022-12-07T10:41:34;12.30;99.90
30973;DHT22;25423;45.624;13.790;2022-12-07T10:44:00;12.30;99.90
30973;DHT22;25423;45.624;13.790;2022-12-07T10:48:55;12.50;99.90
30973;DHT22;25423;45.624;13.790;2022-12-07T10:59:24;12.50;99.90
30973;DHT22;25423;45.624;13.790;2022-12-07T11:21:26;12.30;99.90
30973;DHT22;25423;45.624;13.790;2022-12-07T11:24:01;12.40;99.90
30973;DHT22;25423;45.624;13.790;2022-12-07T11:32:30;12.30;99.90
30973;DHT22;25423;45.624;13.790;2022-12-07T11:37:43;12.60;99.90
30973;DHT22;25423;45.624;13.790;2022-12-07T11:40:20;12.60;99.90
30973;DHT22;25423;45.624;13.790;2022-12-07T11:42:58;12.60;99.90
30973;DHT22;25423;45.624;13.790;2022-12-07T11:45:42;12.60;99.90
30973;DHT22;25423;45.624;13.790;2022-12-07T11:50:54;12.60;99.90
30973;DHT22;25423;45.624;13.790;2022-12-07T11:53:35;12.60;99.90
30973;DHT22;25423;45.624;13.790;2022-12-07T12:03:49;12.50;99.90
30973;DHT22;25423;45.624;13.790;2022-12-07T12:06:15;12.60;99.90
30973;DHT22;25423;45.624;13.790;2022-12-07T12:11:18;12.50;99.90
30973;DHT22;25423;45.624;13.790;2022-12-07T12:19:22;12.50;99.90
30973;DHT22;25423;45.624;13.790;2022-12-07T12:21:57;12.40;99.90
30973;DHT22;25423;45.624;13.790;2022-12-07T12:24:28;12.40;99.90
30973;DHT22;25423;45.624;13.790;2022-12-07T12:27:06;12.30;99.90
30973;DHT22;25423;45.624;13.790;2022-12-07T12:29:40;12.20;99.90
30973;DHT22;25423;45.624;13.790;2022-12-07T12:32:14;12.30;99.90
30973;DHT22;25423;45.624;13.790;2022-12-07T12:42:48;12.60;99.90
30973;DHT22;25423;45.624;13.790;2022-12-07T12:47:56;12.50;99.90
30973;DHT22;25423;45.624;13.790;2022-12-07T12:50:27;12.40;99.90
30973;DHT22;25423;45.624;13.790;2022-12-07T12:56:08;12.20;99.90
30973;DHT22;25423;45.624;13.790;2022-12-07T12:58:37;12.20;99.90
30973;DHT22;25423;45.624;13.790;2022-12-07T13:03:59;12.20;99.90
30973;DHT22;25423;45.624;13.790;2022-12-07T13:08:52;12.30;99.90
30973;DHT22;25423;45.624;13.790;2022-12-07T13:11:19;12.20;99.90
30973;DHT22;25423;45.624;13.790;2022-12-07T13:13:49;12.20;99.90
30973;DHT22;25423;45.624;13.790;2022-12-07T13:18:44;12.30;99.90
30973;DHT22;25423;45.624;13.790;2022-12-07T13:21:41;12.40;99.90
30973;DHT22;25423;45.624;13.790;2022-12-07T13:23:56;12.40;99.90
30973;DHT22;25423;45.624;13.790;2022-12-07T13:26:35;12.40;99.90
30973;DHT22;25423;45.624;13.790;2022-12-07T13:31:32;12.30;99.90
30973;DHT22;25423;45.624;13.790;2022-12-07T13:33:58;12.20;99.90
30973;DHT22;25423;45.624;13.790;2022-12-07T13:36:25;12.20;99.90
30973;DHT22;25423;45.624;13.790;2022-12-07T13:39:16;12.10;99.90
30973;DHT22;25423;45.624;13.790;2022-12-07T13:41:48;12.00;99.90
30973;DHT22;25423;45.624;13.790;2022-12-07T13:44:16;12.00;99.90
30973;DHT22;25423;45.624;13.790;2022-12-07T13:46:57;11.90;99.90
30973;DHT22;25423;45.624;13.790;2022-12-07T13:49:26;12.00;99.90
30973;DHT22;25423;45.624;13.790;2022-12-07T13:51:52;12.00;99.90
30973;DHT22;25423;45.624;13.790;2022-12-07T13:54:19;11.90;99.90
30973;DHT22;25423;45.624;13.790;2022-12-07T13:56:53;11.90;99.90
30973;DHT22;25423;45.624;13.790;2022-12-07T13:59:23;11.80;99.90
30973;DHT22;25423;45.624;13.790;2022-12-07T14:01:50;11.80;99.90
30973;DHT22;25423;45.624;13.790;2022-12-07T14:04:50;11.80;99.90
30973;DHT22;25423;45.624;13.790;2022-12-07T14:07:25;11.80;99.90
30973;DHT22;25423;45.624;13.790;2022-12-07T14:09:54;11.80;99.90
30973;DHT22;25423;45.624;13.790;2022-12-07T14:12:20;11.70;99.90
30973;DHT22;25423;45.624;13.790;2022-12-07T14:14:47;11.70;99.90
30973;DHT22;25423;45.624;13.790;2022-12-07T14:17:15;11.70;99.90
30973;DHT22;25423;45.624;13.790;2022-12-07T14:19:46;11.70;99.90
30973;DHT22;25423;45.624;13.790;2022-12-07T14:22:54;11.70;99.90
30973;DHT22;25423;45.624;13.790;2022-12-07T14:25:16;11.70;99.90
30973;DHT22;25423;45.624;13.790;2022-12-07T14:27:58;11.60;99.90
30973;DHT22;25423;45.624;13.790;2022-12-07T14:30:25;11.70;99.90
30973;DHT22;25423;45.624;13.790;2022-12-07T14:32:53;11.70;99.90
30973;DHT22;25423;45.624;13.790;2022-12-07T14:35:28;11.70;99.90
30973;DHT22;25423;45.624;13.790;2022-12-07T14:37:54;11.60;99.90
30973;DHT22;25423;45.624;13.790;2022-12-07T14:40:21;11.60;99.90
30973;DHT22;25423;45.624;13.790;2022-12-07T14:42:52;11.60;99.90
30973;DHT22;25423;45.624;13.790;2022-12-07T14:45:20;11.50;99.90
30973;DHT22;25423;45.624;13.790;2022-12-07T14:47:48;11.40;99.90
30973;DHT22;25423;45.624;13.790;2022-12-07T14:50:15;11.30;99.90
30973;DHT22;25423;45.624;13.790;2022-12-07T14:52:42;11.30;99.90
30973;DHT22;25423;45.624;13.790;2022-12-07T14:55:18;11.20;99.90
30973;DHT22;25423;45.624;13.790;2022-12-07T14:57:54;11.20;99.90
30973;DHT22;25423;45.624;13.790;2022-12-07T15:00:21;11.20;99.90
30973;DHT22;25423;45.624;13.790;2022-12-07T15:02:47;11.10;99.90
30973;DHT22;25423;45.624;13.790;2022-12-07T15:05:14;11.10;99.90
30973;DHT22;25423;45.624;13.790;2022-12-07T15:07:45;11.00;99.90
30973;DHT22;25423;45.624;13.790;2022-12-07T15:12:45;11.00;99.90
30973;DHT22;25423;45.624;13.790;2022-12-07T15:15:12;10.90;99.90
30973;DHT22;25423;45.624;13.790;2022-12-07T15:17:38;10.90;99.90
30973;DHT22;25423;45.624;13.790;2022-12-07T15:20:04;10.90;99.90
30973;DHT22;25423;45.624;13.790;2022-12-07T15:22:30;10.80;99.90
30973;DHT22;25423;45.624;13.790;2022-12-07T15:24:56;10.80;99.90
30973;DHT22;25423;45.624;13.790;2022-12-07T15:27:22;10.80;99.90
30973;DHT22;25423;45.624;13.790;2022-12-07T15:29:48;10.80;99.90
30973;DHT22;25423;45.624;13.790;2022-12-07T15:32:14;10.70;99.90
30973;DHT22;25423;45.624;13.790;2022-12-07T15:34:39;10.70;99.90
30973;DHT22;25423;45.624;13.790;2022-12-07T15:37:05;10.70;99.90
30973;DHT22;25423;45.624;13.790;2022-12-07T15:39:40;10.60;99.90
30973;DHT22;25423;45.624;13.790;2022-12-07T15:42:06;10.50;99.90
30973;DHT22;25423;45.624;13.790;2022-12-07T15:44:31;10.60;99.90
30973;DHT22;25423;45.624;13.790;2022-12-07T15:47:15;10.50;99.90
30973;DHT22;25423;45.624;13.790;2022-12-07T15:49:41;10.40;99.90
30973;DHT22;25423;45.624;13.790;2022-12-07T15:52:07;10.50;99.90
30973;DHT22;25423;45.624;13.790;2022-12-07T15:55:08;10.40;99.90
30973;DHT22;25423;45.624;13.790;2022-12-07T15:57:35;10.40;99.90
30973;DHT22;25423;45.624;13.790;2022-12-07T16:00:02;10.50;99.90
30973;DHT22;25423;45.624;13.790;2022-12-07T16:02:28;10.40;99.90
30973;DHT22;25423;45.624;13.790;2022-12-07T16:04:54;10.30;99.90
30973;DHT22;25423;45.624;13.790;2022-12-07T16:07:20;10.30;99.90
30973;DHT22;25423;45.624;13.790;2022-12-07T16:09:46;10.20;99.90
30973;DHT22;25423;45.624;13.790;2022-12-07T16:12:13;10.10;99.90
30973;DHT22;25423;45.624;13.790;2022-12-07T16:14:38;10.10;99.90
30973;DHT22;25423;45.624;13.790;2022-12-07T16:17:07;10.20;99.90
30973;DHT22;25423;45.624;13.790;2022-12-07T16:19:33;10.20;99.90
30973;DHT22;25423;45.624;13.790;2022-12-07T16:21:58;10.20;99.90
30973;DHT22;25423;45.624;13.790;2022-12-07T16:24:24;10.20;99.90
30973;DHT22;25423;45.624;13.790;2022-12-07T16:26:50;10.20;99.90
30973;DHT22;25423;45.624;13.790;2022-12-07T16:29:17;10.20;99.90
30973;DHT22;25423;45.624;13.790;2022-12-07T16:31:42;10.20;99.90
30973;DHT22;25423;45.624;13.790;2022-12-07T16:34:08;10.20;99.90
30973;DHT22;25423;45.624;13.790;2022-12-07T16:36:34;10.10;99.90
30973;DHT22;25423;45.624;13.790;2022-12-07T16:39:00;10.00;99.90
30973;DHT22;25423;45.624;13.790;2022-12-07T16:41:26;10.00;99.90
30973;DHT22;25423;45.624;13.790;2022-12-07T16:44:03;10.00;99.90
30973;DHT22;25423;45.624;13.790;2022-12-07T16:46:31;10.00;99.90
30973;DHT22;25423;45.624;13.790;2022-12-07T16:48:56;9.90;99.90
30973;DHT22;25423;45.624;13.790;2022-12-07T16:51:22;9.90;99.90
30973;DHT22;25423;45.624;13.790;2022-12-07T16:53:48;9.90;99.90
30973;DHT22;25423;45.624;13.790;2022-12-07T16:56:14;9.90;99.90
30973;DHT22;25423;45.624;13.790;2022-12-07T16:58:41;9.90;99.90
30973;DHT22;25423;45.624;13.790;2022-12-07T17:01:19;10.00;99.90
30973;DHT22;25423;45.624;13.790;2022-12-07T17:03:47;10.00;99.90
30973;DHT22;25423;45.624;13.790;2022-12-07T17:06:16;10.00;99.90
30973;DHT22;25423;45.624;13.790;2022-12-07T17:08:42;10.00;99.90
30973;DHT22;25423;45.624;13.790;2022-12-07T17:11:09;9.90;99.90
30973;DHT22;25423;45.624;13.790;2022-12-07T17:13:35;9.90;99.90
30973;DHT22;25423;45.624;13.790;2022-12-07T17:16:19;9.80;99.90
30973;DHT22;25423;45.624;13.790;2022-12-07T17:18:45;9.80;99.90
30973;DHT22;25423;45.624;13.790;2022-12-07T17:21:11;9.80;99.90
30973;DHT22;25423;45.624;13.790;2022-12-07T17:23:37;9.80;99.90
30973;DHT22;25423;45.624;13.790;2022-12-07T17:26:06;9.90;99.90
30973;DHT22;25423;45.624;13.790;2022-12-07T17:28:36;9.80;99.90
30973;DHT22;25423;45.624;13.790;2022-12-07T17:31:11;9.90;99.90
30973;DHT22;25423;45.624;13.790;2022-12-07T17:33:40;9.80;99.90
30973;DHT22;25423;45.624;13.790;2022-12-07T17:36:10;9.90;99.90
30973;DHT22;25423;45.624;13.790;2022-12-07T17:38:36;9.80;99.90
30973;DHT22;25423;45.624;13.790;2022-12-07T17:41:08;9.80;99.90
30973;DHT22;25423;45.624;13.790;2022-12-07T17:43:34;9.80;99.90
30973;DHT22;25423;45.624;13.790;2022-12-07T17:46:05;9.80;99.90
30973;DHT22;25423;45.624;13.790;2022-12-07T17:48:30;9.90;99.90
30973;DHT22;25423;45.624;13.790;2022-12-07T17:50:59;9.90;99.90
30973;DHT22;25423;45.624;13.790;2022-12-07T17:54:02;9.90;99.90
30973;DHT22;25423;45.624;13.790;2022-12-07T17:56:28;9.90;99.90
30973;DHT22;25423;45.624;13.790;2022-12-07T17:59:27;9.80;99.90
30973;DHT22;25423;45.624;13.790;2022-12-07T18:01:46;9.60;99.90
30973;DHT22;25423;45.624;13.790;2022-12-07T18:04:12;9.70;99.90
30973;DHT22;25423;45.624;13.790;2022-12-07T18:06:37;9.80;99.90
30973;DHT22;25423;45.624;13.790;2022-12-07T18:11:37;9.90;99.90
30973;DHT22;25423;45.624;13.790;2022-12-07T18:14:03;9.80;99.90
30973;DHT22;25423;45.624;13.790;2022-12-07T18:16:32;9.80;99.90
30973;DHT22;25423;45.624;13.790;2022-12-07T18:19:03;9.80;99.90
30973;DHT22;25423;45.624;13.790;2022-12-07T18:21:29;9.80;99.90
30973;DHT22;25423;45.624;13.790;2022-12-07T18:24:04;9.90;99.90
30973;DHT22;25423;45.624;13.790;2022-12-07T18:26:31;9.90;99.90
30973;DHT22;25423;45.624;13.790;2022-12-07T18:31:44;9.90;99.90
30973;DHT22;25423;45.624;13.790;2022-12-07T18:34:31;9.90;99.90
30973;DHT22;25423;45.624;13.790;2022-12-07T18:36:57;9.90;99.90
30973;DHT22;25423;45.624;13.790;2022-12-07T18:39:23;9.90;99.90
30973;DHT22;25423;45.624;13.790;2022-12-07T18:41:48;9.80;99.90
30973;DHT22;25423;45.624;13.790;2022-12-07T18:44:14;9.80;99.90
30973;DHT22;25423;45.624;13.790;2022-12-07T18:46:44;9.80;99.90
30973;DHT22;25423;45.624;13.790;2022-12-07T18:49:13;9.70;99.90
30973;DHT22;25423;45.624;13.790;2022-12-07T18:51:42;9.70;99.90
30973;DHT22;25423;45.624;13.790;2022-12-07T18:54:08;9.70;99.90
30973;DHT22;25423;45.624;13.790;2022-12-07T18:56:36;9.70;99.90
30973;DHT22;25423;45.624;13.790;2022-12-07T18:59:02;9.80;99.90
30973;DHT22;25423;45.624;13.790;2022-12-07T19:01:48;9.80;99.90
30973;DHT22;25423;45.624;13.790;2022-12-07T19:04:14;9.80;99.90
30973;DHT22;25423;45.624;13.790;2022-12-07T19:06:41;9.80;99.90
30973;DHT22;25423;45.624;13.790;2022-12-07T19:09:07;9.80;99.90
30973;DHT22;25423;45.624;13.790;2022-12-07T19:11:33;9.80;99.90
30973;DHT22;25423;45.624;13.790;2022-12-07T19:16:43;9.90;99.90
30973;DHT22;25423;45.624;13.790;2022-12-07T19:19:09;9.90;99.90
30973;DHT22;25423;45.624;13.790;2022-12-07T19:21:46;9.90;99.90
30973;DHT22;25423;45.624;13.790;2022-12-07T19:24:12;9.90;99.90
30973;DHT22;25423;45.624;13.790;2022-12-07T19:26:49;9.80;99.90
30973;DHT22;25423;45.624;13.790;2022-12-07T19:29:15;9.80;99.90
30973;DHT22;25423;45.624;13.790;2022-12-07T19:31:46;9.80;99.90
30973;DHT22;25423;45.624;13.790;2022-12-07T19:34:14;9.80;99.90
30973;DHT22;25423;45.624;13.790;2022-12-07T19:39:27;9.90;99.90